createdAt,value
2023-06-09T00:02:26.951Z,15.90
2023-06-09T00:05:00.809Z,15.90
2023-06-09T00:07:37.352Z,15.90
2023-06-09T00:10:13.326Z,15.80
2023-06-09T00:12:48.403Z,15.80
2023-06-09T00:15:22.093Z,15.80
2023-06-09T00:17:56.639Z,15.80
2023-06-09T00:20:35.197Z,15.80
2023-06-09T00:23:09.172Z,15.80
2023-06-09T00:25:44.115Z,15.80
2023-06-09T00:28:17.647Z,15.70
2023-06-09T00:30:51.476Z,15.70
2023-06-09T00:33:25.046Z,15.70
2023-06-09T00:35:58.643Z,15.70
2023-06-09T00:38:32.155Z,15.70
2023-06-09T00:41:07.084Z,15.70
2023-06-09T00:43:42.165Z,15.70
2023-06-09T00:46:16.016Z,15.70
2023-06-09T00:48:50.133Z,15.70
2023-06-09T00:51:24.316Z,15.60
2023-06-09T00:53:57.980Z,15.70
2023-06-09T00:56:34.337Z,15.70
2023-06-09T00:59:12.899Z,15.70
2023-06-09T01:01:47.040Z,15.60
2023-06-09T01:04:21.161Z,15.60
2023-06-09T01:07:01.748Z,15.60
2023-06-09T01:09:40.998Z,15.60
2023-06-09T01:12:24.632Z,15.60
2023-06-09T01:15:05.701Z,15.60
2023-06-09T01:17:41.538Z,15.60
2023-06-09T01:20:24.234Z,15.60
2023-06-09T01:23:07.974Z,15.50
2023-06-09T01:25:47.124Z,15.50
2023-06-09T01:28:24.428Z,15.50
2023-06-09T01:30:58.886Z,15.50
2023-06-09T01:33:33.436Z,15.50
2023-06-09T01:36:07.609Z,15.50
2023-06-09T01:38:41.416Z,15.40
2023-06-09T01:41:16.412Z,15.40
2023-06-09T01:43:50.059Z,15.40
2023-06-09T01:46:23.787Z,15.40
2023-06-09T01:49:07.305Z,15.40
2023-06-09T01:51:45.533Z,15.40
2023-06-09T01:54:24.819Z,15.40
2023-06-09T01:57:08.413Z,15.30
2023-06-09T01:59:48.179Z,15.30
2023-06-09T02:02:23.622Z,15.30
2023-06-09T02:04:59.919Z,15.30
2023-06-09T02:07:34.712Z,15.30
2023-06-09T02:10:11.176Z,15.20
2023-06-09T02:12:46.107Z,15.20
2023-06-09T02:15:20.328Z,15.10
2023-06-09T02:17:53.932Z,15.10
2023-06-09T02:20:27.935Z,15.10
2023-06-09T02:23:01.463Z,15.10
2023-06-09T02:25:35.387Z,15.10
2023-06-09T02:28:10.988Z,15.10
2023-06-09T02:30:44.605Z,15.10
2023-06-09T02:33:19.602Z,15.10
2023-06-09T02:35:54.191Z,15.10
2023-06-09T02:38:27.979Z,15.10
2023-06-09T02:41:01.539Z,15.10
2023-06-09T02:43:36.563Z,15.10
2023-06-09T02:46:10.411Z,15.10
2023-06-09T02:48:44.006Z,15.00
2023-06-09T02:51:17.574Z,15.00
2023-06-09T02:53:51.699Z,15.00
2023-06-09T02:56:25.294Z,15.00
2023-06-09T02:59:02.053Z,15.00
2023-06-09T03:01:36.512Z,15.00
2023-06-09T03:04:13.541Z,15.00
2023-06-09T03:06:51.613Z,15.00
2023-06-09T03:09:26.409Z,15.00
2023-06-09T03:12:07.687Z,15.00
2023-06-09T03:14:44.619Z,15.00
2023-06-09T03:17:19.874Z,15.00
2023-06-09T03:19:54.486Z,15.00
2023-06-09T03:22:29.335Z,15.00
2023-06-09T03:25:03.228Z,15.10
2023-06-09T03:27:37.688Z,15.10
2023-06-09T03:30:13.868Z,15.10
2023-06-09T03:32:49.667Z,15.10
2023-06-09T03:35:23.443Z,15.10
2023-06-09T03:37:57.484Z,15.10
2023-06-09T03:40:31.400Z,15.10
2023-06-09T03:43:05.509Z,15.00
2023-06-09T03:45:40.538Z,15.00
2023-06-09T03:48:15.812Z,15.00
2023-06-09T03:50:50.820Z,15.00
2023-06-09T03:53:25.265Z,15.00
2023-06-09T03:56:00.194Z,15.00
2023-06-09T03:58:34.520Z,15.00
2023-06-09T04:01:12.179Z,15.00
2023-06-09T04:03:47.099Z,15.10
2023-06-09T04:06:20.859Z,15.10
2023-06-09T04:08:54.663Z,15.10
2023-06-09T04:11:30.971Z,15.20
2023-06-09T04:14:05.952Z,15.20
2023-06-09T04:16:41.395Z,15.20
2023-06-09T04:19:15.697Z,15.20
2023-06-09T04:21:50.769Z,15.20
2023-06-09T04:24:24.377Z,15.20
2023-06-09T04:26:59.161Z,15.20
2023-06-09T04:29:34.202Z,15.20
2023-06-09T04:32:12.953Z,15.30
2023-06-09T04:34:47.404Z,15.30
2023-06-09T04:37:22.128Z,15.20
2023-06-09T04:39:56.351Z,15.30
2023-06-09T04:42:31.530Z,15.30
2023-06-09T04:45:05.889Z,15.30
2023-06-09T04:47:40.892Z,15.40
2023-06-09T04:50:16.369Z,15.40
2023-06-09T04:52:50.148Z,15.40
2023-06-09T04:55:26.712Z,15.40
2023-06-09T04:58:00.430Z,15.50
2023-06-09T05:00:34.082Z,15.50
2023-06-09T05:03:09.932Z,15.50
2023-06-09T05:05:44.672Z,15.60
2023-06-09T05:08:18.227Z,15.60
2023-06-09T05:10:53.920Z,15.70
2023-06-09T05:13:28.047Z,15.70
2023-06-09T05:16:01.713Z,15.80
2023-06-09T05:18:36.876Z,15.80
2023-06-09T05:21:11.351Z,15.90
2023-06-09T05:23:44.988Z,15.90
2023-06-09T05:26:20.008Z,16.00
2023-06-09T05:28:53.896Z,16.00
2023-06-09T05:31:27.513Z,16.10
2023-06-09T05:34:02.513Z,16.10
2023-06-09T05:36:37.697Z,16.20
2023-06-09T05:39:12.408Z,16.20
2023-06-09T05:41:46.057Z,16.20
2023-06-09T05:44:19.876Z,16.30
2023-06-09T05:46:53.448Z,16.30
2023-06-09T05:49:28.555Z,16.40
2023-06-09T05:52:02.861Z,16.40
2023-06-09T05:54:37.785Z,16.50
2023-06-09T05:57:11.744Z,16.50
2023-06-09T05:59:45.384Z,16.60
2023-06-09T06:02:19.474Z,16.70
2023-06-09T06:04:54.450Z,16.80
2023-06-09T06:07:28.034Z,16.80
2023-06-09T06:10:01.536Z,16.90
2023-06-09T06:12:35.602Z,16.90
2023-06-09T06:15:10.060Z,17.00
2023-06-09T06:17:43.692Z,17.00
2023-06-09T06:20:18.848Z,17.10
2023-06-09T06:22:52.445Z,17.10
2023-06-09T06:25:26.367Z,17.20
2023-06-09T06:27:59.929Z,17.30
2023-06-09T06:30:34.333Z,17.30
2023-06-09T06:33:08.566Z,17.50
2023-06-09T06:35:43.703Z,17.60
2023-06-09T06:38:17.432Z,17.70
2023-06-09T06:40:51.400Z,17.80
2023-06-09T06:43:25.016Z,17.90
2023-06-09T06:46:06.534Z,18.00
2023-06-09T06:48:41.673Z,18.10
2023-06-09T06:51:16.897Z,18.20
2023-06-09T06:53:50.463Z,18.40
2023-06-09T06:56:24.240Z,18.60
2023-06-09T06:58:57.821Z,18.70
2023-06-09T07:01:33.311Z,18.90
2023-06-09T07:04:07.161Z,19.20
2023-06-09T07:06:42.514Z,19.40
2023-06-09T07:09:16.462Z,19.60
2023-06-09T07:11:49.981Z,19.70
2023-06-09T07:14:23.523Z,19.90
2023-06-09T07:16:57.046Z,20.00
2023-06-09T07:19:30.600Z,20.20
2023-06-09T07:22:06.033Z,20.40
2023-06-09T07:24:39.807Z,20.50
2023-06-09T07:27:13.376Z,20.70
2023-06-09T07:29:47.888Z,20.80
2023-06-09T07:32:21.654Z,20.80
2023-06-09T07:34:58.945Z,20.80
2023-06-09T07:37:34.157Z,20.90
2023-06-09T07:40:19.411Z,20.80
2023-06-09T07:42:54.517Z,20.90
2023-06-09T07:45:28.690Z,20.90
2023-06-09T07:48:02.489Z,20.90
2023-06-09T07:50:50.718Z,20.90
2023-06-09T07:53:31.203Z,20.90
2023-06-09T07:56:06.155Z,20.90
2023-06-09T07:58:39.805Z,20.90
2023-06-09T08:01:13.398Z,20.90
2023-06-09T08:03:47.263Z,20.90
2023-06-09T08:06:21.136Z,21.00
2023-06-09T08:08:57.970Z,21.00
2023-06-09T08:11:31.980Z,21.00
2023-06-09T08:14:07.668Z,21.00
2023-06-09T08:16:42.806Z,21.00
2023-06-09T08:19:18.023Z,21.10
2023-06-09T08:21:54.837Z,21.10
2023-06-09T08:24:32.002Z,21.20
2023-06-09T08:27:11.296Z,21.30
2023-06-09T08:29:48.766Z,21.30
2023-06-09T08:32:29.239Z,21.50
2023-06-09T08:35:11.873Z,21.60
2023-06-09T08:37:50.646Z,21.80
2023-06-09T08:40:37.548Z,22.10
2023-06-09T08:43:15.995Z,22.40
2023-06-09T08:45:56.581Z,22.70
2023-06-09T08:48:36.762Z,22.80
2023-06-09T08:51:14.889Z,23.00
2023-06-09T08:53:56.258Z,23.10
2023-06-09T08:56:36.603Z,23.20
2023-06-09T08:59:14.240Z,23.30
2023-06-09T09:01:55.730Z,23.40
2023-06-09T09:04:34.575Z,23.50
2023-06-09T09:07:15.907Z,23.60
2023-06-09T09:09:53.746Z,23.70
2023-06-09T09:12:50.804Z,23.80
2023-06-09T09:15:32.277Z,24.00
2023-06-09T09:18:11.659Z,24.00
2023-06-09T09:20:49.333Z,24.00
2023-06-09T09:23:35.687Z,23.90
2023-06-09T09:26:11.895Z,23.90
2023-06-09T09:28:52.081Z,23.90
2023-06-09T09:31:39.511Z,23.80
2023-06-09T09:34:17.021Z,23.80
2023-06-09T09:37:01.130Z,23.80
2023-06-09T09:39:37.782Z,23.70
2023-06-09T09:42:14.108Z,23.70
2023-06-09T09:44:54.001Z,23.70
2023-06-09T09:47:30.151Z,23.70
2023-06-09T09:50:07.187Z,23.70
2023-06-09T09:52:44.994Z,23.70
2023-06-09T09:55:21.467Z,23.60
2023-06-09T09:57:56.721Z,23.40
2023-06-09T10:00:34.257Z,23.20
2023-06-09T10:03:13.885Z,23.10
2023-06-09T10:05:49.829Z,23.00
2023-06-09T10:08:25.892Z,22.90
2023-06-09T10:11:01.478Z,22.80
2023-06-09T10:13:37.149Z,22.80
2023-06-09T10:16:12.582Z,22.60
2023-06-09T10:18:46.363Z,22.60
2023-06-09T10:21:23.710Z,22.50
2023-06-09T10:23:58.779Z,22.50
2023-06-09T10:26:32.717Z,22.50
2023-06-09T10:29:09.300Z,22.40
2023-06-09T10:31:47.967Z,22.30
2023-06-09T10:34:22.074Z,21.80
2023-06-09T10:36:56.679Z,21.40
2023-06-09T10:39:45.639Z,20.90
2023-06-09T10:42:30.849Z,20.50
2023-06-09T10:45:11.885Z,20.10
2023-06-09T10:47:48.730Z,19.80
2023-06-09T10:50:27.030Z,19.60
2023-06-09T10:53:01.403Z,19.40
2023-06-09T10:55:35.143Z,19.20
2023-06-09T10:58:38.016Z,19.00
2023-06-09T11:01:12.424Z,18.80
2023-06-09T11:03:48.271Z,18.50
2023-06-09T11:06:22.175Z,18.30
2023-06-09T11:09:13.213Z,18.10
2023-06-09T11:11:51.223Z,18.00
2023-06-09T11:14:53.750Z,17.80
2023-06-09T11:17:30.341Z,17.70
2023-06-09T11:20:16.381Z,17.60
2023-06-09T11:23:04.613Z,17.50
2023-06-09T11:25:42.451Z,17.40
2023-06-09T11:28:21.806Z,17.30
2023-06-09T11:31:04.050Z,17.20
2023-06-09T11:33:48.965Z,17.10
2023-06-09T11:36:28.538Z,17.00
2023-06-09T11:39:07.955Z,16.90
2023-06-09T11:41:41.775Z,16.80
2023-06-09T11:44:15.679Z,16.70
2023-06-09T11:46:49.514Z,16.60
2023-06-09T11:49:24.920Z,16.60
2023-06-09T11:52:07.772Z,16.60
2023-06-09T11:54:50.995Z,16.50
2023-06-09T11:57:25.815Z,16.50
2023-06-09T11:59:59.535Z,16.50
2023-06-09T12:02:33.397Z,16.60
2023-06-09T12:05:10.262Z,16.50
2023-06-09T12:07:46.724Z,16.50
2023-06-09T12:10:24.129Z,16.50
2023-06-09T12:12:59.221Z,16.50
2023-06-09T12:15:33.054Z,16.50
2023-06-09T12:18:07.132Z,16.60
2023-06-09T12:20:42.396Z,16.60
2023-06-09T12:23:18.007Z,16.70
2023-06-09T12:25:53.012Z,16.70
2023-06-09T12:28:29.415Z,16.80
2023-06-09T12:31:10.617Z,16.80
2023-06-09T12:33:49.118Z,17.00
2023-06-09T12:36:22.839Z,17.00
2023-06-09T12:38:57.895Z,17.10
2023-06-09T12:41:31.516Z,17.20
2023-06-09T12:44:05.085Z,17.30
2023-06-09T12:46:41.703Z,17.50
2023-06-09T12:49:15.263Z,17.50
2023-06-09T12:51:49.023Z,17.70
2023-06-09T12:54:24.250Z,17.80
2023-06-09T12:56:58.797Z,17.90
2023-06-09T12:59:32.429Z,18.00
2023-06-09T13:02:07.014Z,18.00
2023-06-09T13:04:40.656Z,18.10
2023-06-09T13:07:14.326Z,18.20
2023-06-09T13:09:49.406Z,18.30
2023-06-09T13:12:23.025Z,18.40
2023-06-09T13:14:56.913Z,18.40
2023-06-09T13:17:30.718Z,18.40
2023-06-09T13:20:04.959Z,18.50
2023-06-09T13:22:39.267Z,18.60
2023-06-09T13:25:14.954Z,18.70
2023-06-09T13:27:48.550Z,18.80
2023-06-09T13:30:22.443Z,19.00
2023-06-09T13:32:56.128Z,19.10
2023-06-09T13:35:30.132Z,19.30
2023-06-09T13:38:04.813Z,19.40
2023-06-09T13:40:43.471Z,19.50
2023-06-09T13:43:18.038Z,19.60
2023-06-09T13:45:51.781Z,19.60
2023-06-09T13:48:25.846Z,19.80
2023-06-09T13:51:00.332Z,19.90
2023-06-09T13:53:33.986Z,20.10
2023-06-09T13:56:09.311Z,20.20
2023-06-09T13:58:42.896Z,20.40
2023-06-09T14:01:16.976Z,20.50
2023-06-09T14:03:51.058Z,20.60
2023-06-09T14:06:27.109Z,20.70
2023-06-09T14:09:01.090Z,20.70
2023-06-09T14:11:37.220Z,20.80
2023-06-09T14:14:10.833Z,21.00
2023-06-09T14:16:45.437Z,21.10
2023-06-09T14:19:19.456Z,21.20
2023-06-09T14:21:53.017Z,21.20
2023-06-09T14:24:26.966Z,21.30
2023-06-09T14:27:03.183Z,21.30
2023-06-09T14:29:38.631Z,21.40
2023-06-09T14:32:12.303Z,21.40
2023-06-09T14:34:45.964Z,21.60
2023-06-09T14:37:19.471Z,21.70
2023-06-09T14:39:53.306Z,21.90
2023-06-09T14:42:28.299Z,22.00
2023-06-09T14:45:01.900Z,22.10
2023-06-09T14:47:35.962Z,22.20
2023-06-09T14:50:10.026Z,22.30
2023-06-09T14:52:43.539Z,22.40
2023-06-09T14:55:17.986Z,22.40
2023-06-09T14:57:54.740Z,22.50
2023-06-09T15:00:29.557Z,22.60
2023-06-09T15:03:04.551Z,22.70
2023-06-09T15:05:38.840Z,22.70
2023-06-09T15:08:12.690Z,22.80
2023-06-09T15:10:48.405Z,22.80
2023-06-09T15:13:23.417Z,22.90
2023-06-09T15:15:57.158Z,23.00
2023-06-09T15:18:31.348Z,23.00
2023-06-09T15:21:05.468Z,23.10
2023-06-09T15:23:39.264Z,23.10
2023-06-09T15:26:13.099Z,23.00
2023-06-09T15:28:48.245Z,23.00
2023-06-09T15:31:22.078Z,23.00
2023-06-09T15:33:55.772Z,23.00
2023-06-09T15:36:29.459Z,23.00
2023-06-09T15:39:03.053Z,22.90
2023-06-09T15:41:37.240Z,23.00
2023-06-09T15:44:13.677Z,22.90
2023-06-09T15:46:47.515Z,23.00
2023-06-09T15:49:21.766Z,23.00
2023-06-09T15:51:56.142Z,23.00
2023-06-09T15:54:30.197Z,22.90
2023-06-09T15:57:03.947Z,22.90
2023-06-09T15:59:39.295Z,22.90
2023-06-09T16:02:12.856Z,22.80
2023-06-09T16:04:46.660Z,22.80
2023-06-09T16:07:20.375Z,22.70
2023-06-09T16:09:54.213Z,22.70
2023-06-09T16:12:28.347Z,22.60
2023-06-09T16:15:04.182Z,22.60
2023-06-09T16:17:37.995Z,22.50
2023-06-09T16:20:13.025Z,22.50
2023-06-09T16:22:47.065Z,22.40
2023-06-09T16:25:20.687Z,22.20
2023-06-09T16:27:54.273Z,22.10
2023-06-09T16:30:29.675Z,22.00
2023-06-09T16:33:03.672Z,21.90
2023-06-09T16:35:38.107Z,21.90
2023-06-09T16:38:12.303Z,21.70
2023-06-09T16:40:47.039Z,21.70
2023-06-09T16:43:20.717Z,21.60
2023-06-09T16:45:55.789Z,21.50
2023-06-09T16:48:30.224Z,21.50
2023-06-09T16:51:04.623Z,21.40
2023-06-09T16:53:38.299Z,21.30
2023-06-09T16:56:12.236Z,21.30
2023-06-09T16:58:45.793Z,21.20
2023-06-09T17:01:21.071Z,21.20
2023-06-09T17:03:54.795Z,21.20
2023-06-09T17:06:28.555Z,21.10
2023-06-09T17:09:04.133Z,21.10
2023-06-09T17:11:38.431Z,21.10
2023-06-09T17:14:12.013Z,21.10
2023-06-09T17:16:47.071Z,21.00
2023-06-09T17:19:20.737Z,20.90
2023-06-09T17:21:54.357Z,20.90
2023-06-09T17:24:27.962Z,20.80
2023-06-09T17:27:01.508Z,20.80
2023-06-09T17:29:35.090Z,20.70
2023-06-09T17:32:11.359Z,20.70
2023-06-09T17:34:45.278Z,20.70
2023-06-09T17:37:18.870Z,20.60
2023-06-09T17:39:52.671Z,20.50
2023-06-09T17:42:26.207Z,20.50
2023-06-09T17:45:00.139Z,20.40
2023-06-09T17:47:36.477Z,20.40
2023-06-09T17:50:11.497Z,20.30
2023-06-09T17:52:45.049Z,20.30
2023-06-09T17:55:18.853Z,20.20
2023-06-09T17:57:52.516Z,20.20
2023-06-09T18:00:27.258Z,20.10
2023-06-09T18:03:02.440Z,20.00
2023-06-09T18:05:36.192Z,19.90
2023-06-09T18:08:09.785Z,19.90
2023-06-09T18:10:43.653Z,19.80
2023-06-09T18:13:17.824Z,19.80
2023-06-09T18:15:51.508Z,19.70
2023-06-09T18:18:26.654Z,19.60
2023-06-09T18:21:00.297Z,19.50
2023-06-09T18:23:33.998Z,19.40
2023-06-09T18:26:07.971Z,19.30
2023-06-09T18:28:41.754Z,19.30
2023-06-09T18:31:15.575Z,19.20
2023-06-09T18:33:52.943Z,19.20
2023-06-09T18:36:29.598Z,19.10
2023-06-09T18:39:05.447Z,19.00
2023-06-09T18:41:39.124Z,18.90
2023-06-09T18:44:15.362Z,18.90
2023-06-09T18:46:49.217Z,18.80
2023-06-09T18:49:24.283Z,18.70
2023-06-09T18:51:57.869Z,18.60
2023-06-09T18:54:32.805Z,18.50
2023-06-09T18:57:09.011Z,18.40
2023-06-09T18:59:43.118Z,18.40
2023-06-09T19:02:16.719Z,18.30
2023-06-09T19:04:52.126Z,18.30
2023-06-09T19:07:25.818Z,18.30
2023-06-09T19:09:59.624Z,18.20
2023-06-09T19:12:34.357Z,18.20
2023-06-09T19:15:09.113Z,18.10
2023-06-09T19:17:43.218Z,18.10
2023-06-09T19:20:18.410Z,18.10
2023-06-09T19:22:54.272Z,18.00
2023-06-09T19:25:30.283Z,18.00
2023-06-09T19:28:03.869Z,17.90
2023-06-09T19:30:37.813Z,17.90
2023-06-09T19:33:12.510Z,17.90
2023-06-09T19:35:47.589Z,17.80
2023-06-09T19:38:21.378Z,17.80
2023-06-09T19:40:55.051Z,17.80
2023-06-09T19:43:28.670Z,17.80
2023-06-09T19:46:03.977Z,17.70
2023-06-09T19:48:37.857Z,17.70
2023-06-09T19:51:12.854Z,17.70
2023-06-09T19:53:46.421Z,17.70
2023-06-09T19:56:19.978Z,17.70
2023-06-09T19:58:53.509Z,17.60
2023-06-09T20:01:27.129Z,17.60
2023-06-09T20:04:00.801Z,17.60
2023-06-09T20:06:36.196Z,17.60
2023-06-09T20:09:09.917Z,17.60
2023-06-09T20:11:43.566Z,17.50
2023-06-09T20:14:17.430Z,17.50
2023-06-09T20:16:51.074Z,17.50
2023-06-09T20:19:24.682Z,17.40
2023-06-09T20:21:59.781Z,17.40
2023-06-09T20:24:33.368Z,17.40
2023-06-09T20:27:07.857Z,17.40
2023-06-09T20:29:41.381Z,17.40
2023-06-09T20:32:15.004Z,17.40
2023-06-09T20:34:49.323Z,17.40
2023-06-09T20:37:24.388Z,17.30
2023-06-09T20:39:58.063Z,17.30
2023-06-09T20:42:31.612Z,17.30
2023-06-09T20:45:06.144Z,17.30
2023-06-09T20:47:39.834Z,17.20
2023-06-09T20:50:13.462Z,17.20
2023-06-09T20:52:48.422Z,17.20
2023-06-09T20:55:22.120Z,17.20
2023-06-09T20:57:57.846Z,17.20
2023-06-09T21:00:31.430Z,17.20
2023-06-09T21:03:06.341Z,17.20
2023-06-09T21:05:42.017Z,17.20
2023-06-09T21:08:17.544Z,17.20
2023-06-09T21:10:51.177Z,17.20
2023-06-09T21:13:24.684Z,17.20
2023-06-09T21:15:58.348Z,17.20
2023-06-09T21:18:33.761Z,17.20
2023-06-09T21:21:07.361Z,17.20
2023-06-09T21:23:43.076Z,17.20
2023-06-09T21:26:16.696Z,17.20
2023-06-09T21:28:50.367Z,17.10
2023-06-09T21:31:24.558Z,17.10
2023-06-09T21:33:58.400Z,17.10
2023-06-09T21:36:32.232Z,17.10
2023-06-09T21:39:07.243Z,17.10
2023-06-09T21:41:41.011Z,17.10
2023-06-09T21:44:14.646Z,17.10
2023-06-09T21:46:48.430Z,17.10
2023-06-09T21:49:22.035Z,17.10
2023-06-09T21:51:55.774Z,17.00
2023-06-09T21:54:30.735Z,17.00
2023-06-09T21:57:04.534Z,17.00
2023-06-09T21:59:38.113Z,17.00
2023-06-09T22:02:11.800Z,17.00
2023-06-09T22:04:45.474Z,17.00
2023-06-09T22:07:19.348Z,17.00
2023-06-09T22:09:54.795Z,17.00
2023-06-09T22:12:33.868Z,17.00
2023-06-09T22:15:10.693Z,17.00
2023-06-09T22:17:45.843Z,17.00
2023-06-09T22:20:22.198Z,16.90
2023-06-09T22:22:55.949Z,17.00
2023-06-09T22:25:32.032Z,16.90
2023-06-09T22:28:06.839Z,17.00
2023-06-09T22:30:40.396Z,16.90
2023-06-09T22:33:13.936Z,16.90
2023-06-09T22:35:47.473Z,16.90
2023-06-09T22:38:21.033Z,16.80
2023-06-09T22:40:56.086Z,16.90
2023-06-09T22:43:30.308Z,16.90
2023-06-09T22:46:03.878Z,16.80
2023-06-09T22:48:38.711Z,16.80
2023-06-09T22:51:12.236Z,16.80
2023-06-09T22:53:45.859Z,16.70
2023-06-09T22:56:21.499Z,16.70
2023-06-09T22:58:55.316Z,16.70
2023-06-09T23:01:29.062Z,16.60
2023-06-09T23:04:10.216Z,16.60
2023-06-09T23:06:44.358Z,16.60
2023-06-09T23:09:17.914Z,16.60
2023-06-09T23:11:52.898Z,16.60
2023-06-09T23:14:26.525Z,16.50
2023-06-09T23:17:00.919Z,16.50
2023-06-09T23:19:34.722Z,16.50
2023-06-09T23:22:14.127Z,16.50
2023-06-09T23:24:47.705Z,16.50
2023-06-09T23:27:22.634Z,16.50
2023-06-09T23:29:57.007Z,16.50
2023-06-09T23:32:30.598Z,16.40
2023-06-09T23:35:06.833Z,16.40
2023-06-09T23:37:41.886Z,16.40
2023-06-09T23:40:15.976Z,16.40
2023-06-09T23:42:51.030Z,16.30
2023-06-09T23:45:24.582Z,16.30
2023-06-09T23:47:58.180Z,16.30
2023-06-09T23:50:31.933Z,16.30
2023-06-09T23:53:08.937Z,16.20
2023-06-09T23:55:42.734Z,16.20
2023-06-09T23:58:18.813Z,16.20
